Red Oak, North Carolina
Current Conditions -  °F | °C
As of 3:53 AM on Wednesday 22 Oct 2014 (Local Time) from KRWI Reporting Station
Overcast Overcast  
Wind Chill: 53°   Ceiling: 5000
Heat Index: 53°   Visibility: 10mi
Dew Point: 43°   Wind: 9mph
Humidity: 69%   Direction: 300°WNW
Pressure: 29.9"   Gusts: NA
Location:  36.04°N, 77.91°W
Report Text: KRWI 220753Z AUTO 30008KT 10SM FEW035 BKN050 OVC090 12/06 A2990 RMK AO2 SLP124 T01170061
Loading
Personal Weather Stations






























Interactive Weather Map
Tropical Storm Tracking
New forecast layout! Learn more

10-Day Weather Forecast

Advertisements
Track Severe Weather on mobile